Time;durP1;ratioP1;P1;durP2;ratioP2;P2;SDS_P1;SDS_P2;PMS_P1;PMS_P2;Temp;Humidity;BMP_temperature;BMP_pressure;BME280_temperature;BME280_humidity;BME280_pressure;Samples;Min_cycle;Max_cycle;Signal;HPM_P1;HPM_P2
2022/06/26 00:01:02;;;;;;;4.22;3.92;;;;;;;27.80;46.61;101713.72;4134515;28;20540;-67
2022/06/26 00:03:03;;;;;;;4.30;4.00;;;;;;;27.82;46.55;101708.63;4147828;28;20088;-68
2022/06/26 00:05:08;;;;;;;4.70;4.30;;;;;;;27.81;46.95;101718.22;4148030;28;20478;-68
2022/06/26 00:07:09;;;;;;;4.43;4.13;;;;;;;27.76;46.70;101712.66;4148255;28;20100;-67
2022/06/26 00:09:10;;;;;;;4.65;4.20;;;;;;;27.76;46.65;101714.63;4147751;28;20084;-67
2022/06/26 00:11:14;;;;;;;4.35;3.95;;;;;;;27.81;46.84;101732.28;4148493;28;20595;-68
2022/06/26 00:13:17;;;;;;;4.38;4.07;;;;;;;27.82;46.46;101731.13;4150518;28;20096;-67
2022/06/26 00:15:18;;;;;;;4.32;3.92;;;;;;;27.82;46.47;101731.13;4151224;28;20026;-68
2022/06/26 00:17:19;;;;;;;4.40;4.00;;;;;;;27.81;47.02;101718.22;4150335;28;20823;-67
2022/06/26 00:19:21;;;;;;;4.70;4.30;;;;;;;27.82;46.86;101722.69;4150374;28;20436;-68
2022/06/26 00:21:23;;;;;;;4.20;3.90;;;;;;;27.76;46.78;101715.47;4150916;28;20108;-68
2022/06/26 00:23:24;;;;;;;4.75;4.22;;;;;;;27.83;46.88;101723.53;4150681;28;20096;-68
2022/06/26 00:25:25;;;;;;;4.20;3.88;;;;;;;27.79;46.72;101731.75;4150508;28;20544;-67
2022/06/26 00:27:30;;;;;;;3.92;3.63;;;;;;;27.74;46.72;101719.75;4150488;28;20095;-68
2022/06/26 00:29:34;;;;;;;4.43;4.03;;;;;;;27.79;46.76;101725.28;4150557;28;20119;-67
2022/06/26 00:31:35;;;;;;;4.35;4.05;;;;;;;27.84;46.65;101733.63;4150319;28;20098;-67
2022/06/26 00:33:37;;;;;;;4.32;3.92;;;;;;;27.77;46.98;101719.97;4150815;28;20095;-68
2022/06/26 00:35:38;;;;;;;4.70;4.30;;;;;;;27.83;46.80;101734.78;4151012;28;20030;-68
2022/06/26 00:37:40;;;;;;;4.28;3.90;;;;;;;27.83;46.81;101729.97;4150091;28;20559;-69
2022/06/26 00:39:41;;;;;;;4.30;3.90;;;;;;;27.82;46.60;101725.50;4150167;28;20543;-69
2022/06/26 00:41:46;;;;;;;3.88;3.58;;;;;;;27.79;47.00;101714.03;4150402;28;20042;-66
2022/06/26 00:43:47;;;;;;;4.07;3.53;;;;;;;27.80;46.67;101716.53;4150920;28;20041;-67
2022/06/26 00:45:48;;;;;;;5.00;4.60;;;;;;;27.83;46.90;101724.34;4150708;28;20477;-68
2022/06/26 00:47:50;;;;;;;4.70;4.30;;;;;;;27.84;46.83;101728.00;4150256;28;20046;-68
2022/06/26 00:49:54;;;;;;;4.68;4.22;;;;;;;27.85;46.82;101730.50;4150576;28;20042;-67
2022/06/26 00:51:56;;;;;;;4.45;4.03;;;;;;;27.82;46.62;101714.25;4150506;28;20428;-68
2022/06/26 00:53:57;;;;;;;4.72;4.32;;;;;;;27.85;46.60;101721.22;4150455;28;20050;-68
2022/06/26 00:55:59;;;;;;;6.05;4.22;;;;;;;27.85;46.76;101724.03;4150394;28;20100;-67
2022/06/26 00:58:01;;;;;;;4.45;3.80;;;;;;;27.82;46.97;101719.88;4149653;28;20033;-68
2022/06/26 01:00:05;;;;;;;4.32;4.03;;;;;;;27.84;46.57;101714.75;4150405;28;20457;-67
2022/06/26 01:02:06;;;;;;;3.97;3.67;;;;;;;27.85;46.61;101732.47;4149969;28;20038;-68
2022/06/26 01:04:07;;;;;;;4.40;4.10;;;;;;;27.86;46.54;101739.78;4150378;28;20038;-68
2022/06/26 01:06:09;;;;;;;4.40;4.07;;;;;;;27.85;46.72;101743.72;4149752;28;20437;-68
2022/06/26 01:08:13;;;;;;;4.70;4.30;;;;;;;27.82;46.62;101735.91;4150152;28;20030;-68
2022/06/26 01:10:15;;;;;;;4.03;3.72;;;;;;;27.82;46.65;101753.63;4150200;28;20045;-68
2022/06/26 01:12:17;;;;;;;4.47;3.97;;;;;;;27.84;46.64;101761.75;4149795;28;20042;-68
2022/06/26 01:14:19;;;;;;;4.50;4.05;;;;;;;27.84;46.50;101756.13;4149863;28;20041;-68
2022/06/26 01:16:23;;;;;;;4.18;3.88;;;;;;;27.85;46.78;101769.03;4149591;28;20534;-68
2022/06/26 01:18:27;;;;;;;4.57;4.17;;;;;;;27.86;46.65;101779.16;4150117;28;20096;-67
2022/06/26 01:20:32;;;;;;;4.13;3.72;;;;;;;27.86;46.62;101785.63;4150100;28;20163;-68
2022/06/26 01:22:33;;;;;;;4.18;3.88;;;;;;;27.86;46.74;101791.25;4149452;28;20034;-68
2022/06/26 01:24:35;;;;;;;4.68;4.28;;;;;;;27.79;46.61;101779.53;4149478;28;20046;-68
2022/06/26 01:26:36;;;;;;;4.78;4.38;;;;;;;27.86;46.51;101798.84;4149762;28;20046;-68
2022/06/26 01:28:38;;;;;;;4.53;4.13;;;;;;;27.85;46.61;101798.00;4149599;28;20050;-68
2022/06/26 01:30:39;;;;;;;3.88;3.58;;;;;;;27.85;46.65;101800.81;4149347;28;20038;-68
2022/06/26 01:32:42;;;;;;;3.95;3.65;;;;;;;27.85;46.75;101809.25;4149817;28;20041;-68
2022/06/26 01:34:44;;;;;;;4.38;3.97;;;;;;;27.83;46.76;101808.72;4149514;28;20076;-68
2022/06/26 01:36:45;;;;;;;4.32;3.92;;;;;;;27.86;46.87;101810.94;4149621;28;20038;-68
2022/06/26 01:38:52;;;;;;;4.07;3.75;;;;;;;27.83;46.68;101811.53;4149094;28;20038;-68
2022/06/26 01:40:57;;;;;;;4.38;3.97;;;;;;;27.86;46.75;101813.75;4147777;28;20085;-68
2022/06/26 01:42:59;;;;;;;4.13;3.72;;;;;;;27.81;46.92;101811.03;4149669;28;20456;-68
2022/06/26 01:45:01;;;;;;;4.00;3.70;;;;;;;27.85;46.81;101820.50;4148068;28;20223;-68
2022/06/26 01:47:02;;;;;;;4.78;4.38;;;;;;;27.85;46.85;101826.13;4148149;28;20077;-67
2022/06/26 01:49:04;;;;;;;4.75;4.30;;;;;;;27.88;47.00;101829.47;4148877;28;20548;-69
2022/06/26 01:51:06;;;;;;;4.10;3.80;;;;;;;27.88;46.79;101835.09;4149175;28;20493;-68
2022/06/26 01:53:08;;;;;;;4.10;3.70;;;;;;;27.88;46.85;101832.28;4148930;28;20100;-68
2022/06/26 01:55:09;;;;;;;4.50;4.10;;;;;;;27.64;46.78;101796.66;4149516;28;20038;-68
2022/06/26 01:57:10;;;;;;;4.35;4.05;;;;;;;27.86;46.98;101838.22;4149038;28;20100;-68
2022/06/26 01:59:14;;;;;;;4.28;3.95;;;;;;;27.86;46.65;101836.25;4149201;28;20029;-67
2022/06/26 02:01:19;;;;;;;4.10;3.72;;;;;;;27.84;46.86;101837.69;4149263;28;20088;-67
2022/06/26 02:03:22;;;;;;;4.80;4.40;;;;;;;27.86;46.94;101839.06;4149048;28;20528;-67
2022/06/26 02:05:24;;;;;;;4.43;4.03;;;;;;;27.88;46.54;101840.72;4148846;28;20084;-67
2022/06/26 02:07:25;;;;;;;4.13;3.83;;;;;;;27.85;46.98;101840.19;4149413;28;20038;-67
2022/06/26 02:14:09;;;;;;;4.82;4.20;;;;;;;27.88;46.98;101838.75;4150018;28;20092;-68
2022/06/26 02:16:19;;;;;;;4.80;4.25;;;;;;;27.87;47.22;101839.91;4148775;28;20034;-68
2022/06/26 02:18:21;;;;;;;4.35;3.97;;;;;;;27.81;46.66;101836.34;4146237;28;20064;-68
2022/06/26 02:20:22;;;;;;;4.03;3.72;;;;;;;27.88;46.78;101851.97;4148555;28;20477;-68
2022/06/26 02:22:24;;;;;;;5.35;4.43;;;;;;;27.88;46.98;101857.59;4148711;28;20119;-68
2022/06/26 02:24:25;;;;;;;4.55;4.15;;;;;;;27.88;46.94;101846.34;4149246;28;20417;-68
2022/06/26 02:26:27;;;;;;;4.20;3.80;;;;;;;27.89;46.55;101856.47;4148511;28;20042;-68
2022/06/26 02:28:28;;;;;;;4.75;4.35;;;;;;;27.78;46.61;101836.94;4148827;28;20469;-68
2022/06/26 02:30:30;;;;;;;4.43;4.07;;;;;;;27.83;46.79;101848.09;4147047;28;20441;-67
2022/06/26 02:32:34;;;;;;;4.95;4.18;;;;;;;27.85;47.01;101848.63;4148791;28;20452;-68
2022/06/26 02:34:36;;;;;;;4.93;4.43;;;;;;;27.87;46.56;101856.78;4147901;28;20029;-67
2022/06/26 02:36:37;;;;;;;4.20;3.80;;;;;;;27.84;47.06;101848.94;4148738;28;20440;-68
2022/06/26 02:38:38;;;;;;;4.15;3.85;;;;;;;27.88;46.84;101851.97;4146802;28;20037;-68
2022/06/26 02:40:40;;;;;;;4.00;3.70;;;;;;;27.88;46.99;101847.19;4138029;28;20042;-68
2022/06/26 02:42:41;;;;;;;4.13;3.83;;;;;;;27.86;46.84;101844.69;4148353;28;20429;-68
2022/06/26 02:44:45;;;;;;;4.85;4.45;;;;;;;27.80;47.10;101840.28;4148345;28;20363;-68
2022/06/26 02:46:47;;;;;;;4.63;4.23;;;;;;;27.85;46.81;101845.81;4148333;28;20037;-68
2022/06/26 02:48:48;;;;;;;3.97;3.67;;;;;;;27.88;46.59;101851.97;4148015;28;20271;-68
2022/06/26 02:50:53;;;;;;;4.35;3.95;;;;;;;27.89;46.76;101856.47;4148478;28;20096;-68
2022/06/26 02:52:55;;;;;;;4.13;3.80;;;;;;;27.82;46.70;101848.44;4148159;28;20481;-68
2022/06/26 02:54:56;;;;;;;5.53;3.70;;;;;;;27.86;46.77;101864.38;4148362;28;20054;-68
2022/06/26 02:56:58;;;;;;;4.38;3.97;;;;;;;27.89;46.69;101860.09;4148405;28;20092;-68
2022/06/26 02:58:59;;;;;;;4.10;3.70;;;;;;;27.86;46.91;101864.38;4147949;28;20042;-68
2022/06/26 03:01:06;;;;;;;4.30;3.90;;;;;;;27.87;47.35;101862.41;4148059;28;20441;-68
2022/06/26 03:03:10;;;;;;;4.00;3.60;;;;;;;27.88;46.97;101866.03;4147662;28;20491;-68
2022/06/26 03:05:20;;;;;;;4.40;4.00;;;;;;;27.88;46.95;101866.03;4148403;28;20104;-68
2022/06/26 03:07:24;;;;;;;4.50;4.10;;;;;;;27.90;47.13;101870.19;4147813;28;20444;-68
2022/06/26 03:09:26;;;;;;;4.22;3.90;;;;;;;27.89;46.99;101864.91;4147827;28;20042;-68
2022/06/26 03:11:30;;;;;;;5.20;4.03;;;;;;;27.91;47.12;101873.88;4148338;28;20037;-68
2022/06/26 03:13:31;;;;;;;4.50;4.10;;;;;;;27.90;46.95;101864.56;4148225;28;20444;-68
2022/06/26 03:15:33;;;;;;;4.40;4.00;;;;;;;27.86;46.94;101858.75;4142700;28;20564;-68
2022/06/26 03:17:34;;;;;;;4.65;4.25;;;;;;;27.91;46.86;101868.25;4147734;28;20489;-67
2022/06/26 03:19:39;;;;;;;4.63;4.22;;;;;;;27.91;46.77;101868.25;4148270;28;20042;-68
2022/06/26 03:21:40;;;;;;;3.80;3.50;;;;;;;27.92;46.90;101864.28;4148026;28;20429;-68
2022/06/26 03:24:24;;;;;;;4.93;3.97;;;;;;;27.83;47.11;101858.53;4148260;28;20046;-68
2022/06/26 03:26:09;;;;;;;4.40;4.00;;;;;;;27.91;46.98;101873.88;4146137;28;20440;-68
2022/06/26 03:28:10;;;;;;;4.13;3.80;;;;;;;27.92;47.12;101878.34;4147304;28;20042;-68
2022/06/26 03:30:12;;;;;;;4.43;4.03;;;;;;;27.90;46.91;101873.00;4147736;28;20041;-68
2022/06/26 03:32:16;;;;;;;5.25;4.13;;;;;;;27.84;47.37;101871.44;4147765;28;20492;-68
2022/06/26 03:34:21;;;;;;;4.45;4.15;;;;;;;27.91;47.34;101885.97;4147906;28;20041;-68
2022/06/26 03:36:27;;;;;;;4.55;4.15;;;;;;;27.92;46.90;101893.25;4147755;28;20506;-68
2022/06/26 03:38:29;;;;;;;4.45;3.80;;;;;;;27.93;47.15;101888.47;4147810;28;20478;-68
2022/06/26 03:40:33;;;;;;;4.13;3.83;;;;;;;27.91;46.93;101888.78;4148087;28;20487;-68
2022/06/26 03:42:35;;;;;;;4.13;3.83;;;;;;;27.92;47.24;101883.97;4147816;28;20042;-68
2022/06/26 03:44:36;;;;;;;4.35;4.05;;;;;;;27.90;46.98;101883.44;4147942;28;20203;-68
2022/06/26 03:46:39;;;;;;;4.57;4.18;;;;;;;27.89;47.04;101881.78;4150468;28;20092;-67
2022/06/26 03:48:40;;;;;;;4.40;4.05;;;;;;;27.88;47.03;101880.94;4150796;28;20049;-67
2022/06/26 03:50:42;;;;;;;4.47;4.07;;;;;;;27.92;46.98;101887.63;4151330;28;20100;-68
2022/06/26 03:52:43;;;;;;;3.75;3.45;;;;;;;27.91;47.17;101888.78;4149633;28;20100;-68
2022/06/26 03:54:47;;;;;;;5.95;3.83;;;;;;;27.91;46.92;101890.75;4151449;28;20050;-67
2022/06/26 03:56:49;;;;;;;4.72;3.90;;;;;;;27.92;47.03;101898.03;4151429;28;20116;-68
2022/06/26 03:58:53;;;;;;;4.78;4.38;;;;;;;27.92;47.08;101896.06;4150294;28;20025;-67
2022/06/26 04:00:55;;;;;;;5.85;4.40;;;;;;;27.92;47.36;101893.25;4151735;28;20112;-68
2022/06/26 04:02:56;;;;;;;3.92;3.63;;;;;;;27.93;47.11;101900.53;4151917;28;20041;-69
2022/06/26 04:04:58;;;;;;;4.45;4.05;;;;;;;27.94;47.37;101901.38;4149422;28;20042;-66
2022/06/26 04:07:02;;;;;;;3.95;3.65;;;;;;;27.90;47.32;101889.06;4151385;28;20432;-68
2022/06/26 04:09:04;;;;;;;4.65;4.18;;;;;;;27.94;46.98;101901.38;4151575;28;20096;-67
2022/06/26 04:11:08;;;;;;;6.47;4.10;;;;;;;27.93;46.85;101900.53;4151167;28;20073;-69
2022/06/26 04:13:13;;;;;;;4.20;3.80;;;;;;;27.93;47.31;101905.34;4151053;28;20042;-68
2022/06/26 04:15:15;;;;;;;4.65;4.25;;;;;;;27.93;47.36;101900.53;4149553;28;20333;-66
2022/06/26 04:17:17;;;;;;;4.50;4.10;;;;;;;27.92;47.10;101892.41;4151508;28;20080;-68
2022/06/26 04:19:19;;;;;;;4.45;4.05;;;;;;;27.94;47.18;101907.00;4150884;28;20161;-67
2022/06/26 04:21:23;;;;;;;4.82;4.43;;;;;;;27.93;47.30;101896.91;4150989;28;20481;-67
2022/06/26 04:23:24;;;;;;;4.90;4.40;;;;;;;27.93;47.37;101899.72;4151304;28;20022;-68
2022/06/26 04:25:27;;;;;;;3.95;3.65;;;;;;;27.91;47.45;101879.50;4150489;28;20037;-68
2022/06/26 04:27:31;;;;;;;4.00;3.60;;;;;;;27.94;47.18;101895.75;4150800;28;20037;-68
2022/06/26 04:29:33;;;;;;;4.40;4.00;;;;;;;27.95;47.49;101897.41;4151134;28;20421;-68
2022/06/26 04:31:34;;;;;;;4.55;4.15;;;;;;;27.95;47.57;101892.66;4150642;28;20116;-67
2022/06/26 04:33:35;;;;;;;4.28;3.97;;;;;;;27.95;47.46;101894.59;4150740;28;20425;-67
2022/06/26 04:35:37;;;;;;;4.25;3.85;;;;;;;27.93;47.24;101888.47;4151281;28;20474;-68
2022/06/26 04:37:40;;;;;;;3.95;3.63;;;;;;;27.94;46.94;101895.75;4150919;28;20041;-67
2022/06/26 04:39:44;;;;;;;4.32;3.92;;;;;;;27.95;47.01;101891.78;4151313;28;20092;-67
2022/06/26 04:41:47;;;;;;;4.38;3.97;;;;;;;27.93;47.22;101889.28;4150654;28;20099;-68
2022/06/26 04:43:49;;;;;;;4.07;3.67;;;;;;;27.94;47.07;101884.50;4148139;28;20061;-68
2022/06/26 04:45:53;;;;;;;4.20;3.85;;;;;;;27.95;47.08;101884.22;4150926;28;20038;-68
2022/06/26 04:47:57;;;;;;;4.45;4.05;;;;;;;27.95;47.29;101891.78;4150155;28;20042;-67
2022/06/26 04:49:58;;;;;;;4.60;4.05;;;;;;;27.94;47.10;101885.31;4150483;28;20041;-66
2022/06/26 04:51:59;;;;;;;4.20;3.83;;;;;;;27.95;47.19;101883.34;4150540;28;20096;-66
2022/06/26 04:54:01;;;;;;;4.88;4.38;;;;;;;27.94;47.28;101888.16;4150262;28;20038;-66
2022/06/26 04:56:02;;;;;;;4.15;3.85;;;;;;;27.96;47.39;101885.03;4149833;28;20477;-66
2022/06/26 04:58:04;;;;;;;4.10;3.65;;;;;;;27.94;47.33;101879.72;4149789;28;20100;-66
2022/06/26 05:00:11;;;;;;;4.00;3.70;;;;;;;27.94;47.09;101888.16;4150312;28;20092;-66
2022/06/26 05:02:15;;;;;;;5.00;4.05;;;;;;;27.94;47.33;101884.50;4149086;28;20034;-66
2022/06/26 05:04:17;;;;;;;4.30;3.90;;;;;;;27.94;47.55;101887.31;4149168;28;20033;-66
2022/06/26 05:06:19;;;;;;;4.00;3.70;;;;;;;27.91;47.47;101887.94;4150220;28;20034;-66
2022/06/26 05:08:20;;;;;;;4.28;3.92;;;;;;;27.95;47.39;101892.66;4149783;28;20041;-66
2022/06/26 05:10:22;;;;;;;4.72;4.32;;;;;;;27.89;47.38;101888.22;4150390;28;20042;-66
2022/06/26 05:12:23;;;;;;;4.28;3.88;;;;;;;27.95;47.17;101903.03;4150045;28;20088;-66
2022/06/26 05:14:29;;;;;;;4.50;4.10;;;;;;;27.92;47.60;101907.31;4149786;28;20042;-66
2022/06/26 05:16:30;;;;;;;4.55;4.18;;;;;;;27.94;47.19;101905.03;4149631;28;20088;-66
2022/06/26 05:18:33;;;;;;;4.45;4.10;;;;;;;27.90;47.38;101897.50;4149788;28;20042;-66
2022/06/26 05:20:34;;;;;;;4.47;4.07;;;;;;;27.95;47.50;101908.66;4149964;28;20107;-66
2022/06/26 05:22:35;;;;;;;4.65;3.75;;;;;;;27.95;47.09;101908.66;4150234;28;20072;-66
2022/06/26 05:24:37;;;;;;;4.22;3.83;;;;;;;27.95;47.28;101908.66;4149746;28;20038;-66
2022/06/26 05:26:59;;;;;;;4.85;3.78;;;;;;;27.95;47.24;101908.66;4148388;28;20050;-66
2022/06/26 05:29:01;;;;;;;4.38;3.97;;;;;;;27.93;47.39;101902.53;4148283;28;20147;-68
2022/06/26 05:31:05;;;;;;;4.55;4.15;;;;;;;27.94;47.24;101907.84;4150193;28;20099;-67
2022/06/26 05:33:06;;;;;;;4.50;4.10;;;;;;;27.95;47.36;101903.03;4148807;28;20103;-67
2022/06/26 05:35:13;;;;;;;4.40;4.00;;;;;;;27.92;47.23;101892.41;4148853;28;20042;-66
2022/06/26 05:37:17;;;;;;;3.90;3.60;;;;;;;27.94;47.44;101907.00;4149526;28;20034;-66
2022/06/26 05:39:19;;;;;;;4.47;4.15;;;;;;;27.95;47.36;101911.47;4149004;28;20214;-66
2022/06/26 05:41:20;;;;;;;4.13;3.65;;;;;;;27.91;47.25;101896.38;4149724;28;20088;-67
2022/06/26 05:43:27;;;;;;;3.72;3.42;;;;;;;27.95;47.38;101914.28;4149356;28;20042;-66
2022/06/26 05:45:29;;;;;;;4.20;3.90;;;;;;;27.95;47.29;101908.66;4148803;28;20038;-67
2022/06/26 05:47:30;;;;;;;4.10;3.80;;;;;;;27.97;47.31;101912.03;4149388;28;20042;-67
2022/06/26 05:49:32;;;;;;;4.43;4.07;;;;;;;27.95;47.23;101903.03;4148604;28;20046;-67
2022/06/26 05:51:33;;;;;;;4.97;4.50;;;;;;;27.95;47.82;101900.22;4149490;28;20046;-67
2022/06/26 05:53:37;;;;;;;4.13;3.72;;;;;;;27.94;47.59;101896.59;4149226;28;20548;-68
2022/06/26 05:55:41;;;;;;;4.43;3.95;;;;;;;27.94;47.22;101895.75;4149313;28;20535;-67
2022/06/26 05:57:49;;;;;;;4.60;4.10;;;;;;;27.95;47.52;101891.78;4148807;28;20038;-67
2022/06/26 05:59:58;;;;;;;4.20;3.85;;;;;;;27.95;47.37;101894.59;4149610;28;20041;-67
2022/06/26 06:01:59;;;;;;;4.32;4.03;;;;;;;27.93;47.19;101891.28;4148844;28;20391;-67
2022/06/26 06:04:04;;;;;;;4.30;3.90;;;;;;;27.94;47.23;101890.97;4138934;28;20600;-67
2022/06/26 06:06:05;;;;;;;4.05;3.72;;;;;;;27.80;47.49;101862.78;4149393;28;20099;-67
2022/06/26 06:08:08;;;;;;;4.75;4.20;;;;;;;27.97;47.37;101889.53;4148116;28;20069;-67
2022/06/26 06:10:10;;;;;;;4.43;4.03;;;;;;;27.95;47.52;101887.03;4149047;28;20042;-67
2022/06/26 06:12:14;;;;;;;4.45;4.05;;;;;;;27.96;47.43;101882.22;4149138;28;20059;-67
2022/06/26 06:14:15;;;;;;;4.00;3.60;;;;;;;27.95;47.66;101881.41;4148701;28;20042;-67
2022/06/26 06:16:16;;;;;;;4.40;4.00;;;;;;;27.97;47.49;101883.91;4149424;28;20029;-67
2022/06/26 06:18:20;;;;;;;4.05;3.75;;;;;;;27.96;47.42;101877.44;4149079;28;20087;-67
2022/06/26 06:20:25;;;;;;;4.90;3.83;;;;;;;27.97;47.38;101872.63;4149013;28;20037;-67
2022/06/26 06:22:26;;;;;;;;;;;;;;;27.95;47.40;101877.72;4149510;28;20046;-67
2022/06/26 06:24:27;;;;;;;4.05;3.75;;;;;;;27.98;47.22;101874.31;4148897;28;19948;-67
2022/06/26 06:26:29;;;;;;;4.40;4.00;;;;;;;27.99;47.43;101871.19;4149384;28;20122;-68
2022/06/26 06:28:30;;;;;;;4.03;3.63;;;;;;;27.95;47.08;101864.53;4149064;28;20584;-67
2022/06/26 06:30:31;;;;;;;4.20;3.83;;;;;;;27.98;47.52;101868.69;4148656;28;20037;-68
2022/06/26 06:32:36;;;;;;;4.70;4.30;;;;;;;27.97;47.70;101872.63;4148596;28;20049;-68
2022/06/26 06:34:40;;;;;;;3.95;3.65;;;;;;;27.97;47.34;101875.47;4148580;28;20050;-68
2022/06/26 06:36:43;;;;;;;4.17;3.77;;;;;;;27.96;47.43;101865.34;4148574;28;20060;-68
2022/06/26 06:38:47;;;;;;;3.83;3.53;;;;;;;27.91;47.56;101871.91;4148398;28;20345;-68
2022/06/26 06:40:51;;;;;;;4.07;3.78;;;;;;;27.92;47.32;101881.16;4148632;28;20038;-66
2022/06/26 06:42:52;;;;;;;3.50;3.20;;;;;;;27.92;47.53;101867.94;4148531;28;20437;-66
2022/06/26 06:44:54;;;;;;;4.10;3.70;;;;;;;27.96;47.31;101876.59;4148423;28;20038;-66
2022/06/26 06:46:55;;;;;;;4.03;3.72;;;;;;;27.97;47.29;101881.09;4148234;28;20045;-66
2022/06/26 06:48:56;;;;;;;3.60;3.30;;;;;;;27.96;47.45;101885.03;4148499;28;20077;-66
2022/06/26 06:50:58;;;;;;;3.90;3.60;;;;;;;27.91;47.63;101873.88;4148803;28;20034;-66
2022/06/26 06:52:59;;;;;;;4.15;3.75;;;;;;;27.96;47.87;101882.22;4148440;28;20037;-66
2022/06/26 06:55:01;;;;;;;4.13;3.83;;;;;;;27.96;47.73;101882.22;4148027;28;20042;-66
2022/06/26 06:57:06;;;;;;;4.50;4.10;;;;;;;27.83;47.71;101861.34;4148206;28;20049;-66
2022/06/26 06:59:07;;;;;;;3.80;3.50;;;;;;;27.95;47.66;101891.78;4148337;28;20521;-66
2022/06/26 07:01:11;;;;;;;4.25;3.90;;;;;;;27.92;47.48;101886.78;4148668;28;20041;-66
2022/06/26 07:03:12;;;;;;;4.05;3.65;;;;;;;27.92;47.51;101898.03;4148399;28;20049;-66
2022/06/26 07:05:19;;;;;;;4.07;3.67;;;;;;;27.95;47.65;101903.03;4148553;28;20099;-66
2022/06/26 07:07:20;;;;;;;4.00;3.70;;;;;;;27.94;47.85;101902.22;4148346;28;20096;-67
2022/06/26 07:09:21;;;;;;;3.78;3.47;;;;;;;27.94;47.50;101901.38;4148252;28;20092;-67
2022/06/26 07:11:23;;;;;;;3.88;3.58;;;;;;;27.94;47.55;101912.63;4147973;28;20115;-67
2022/06/26 07:13:28;;;;;;;4.13;3.75;;;;;;;27.93;47.66;101911.78;4148625;28;20157;-67
2022/06/26 07:15:29;;;;;;;4.22;3.80;;;;;;;27.94;47.74;101907.00;4148438;28;20045;-67
2022/06/26 07:17:30;;;;;;;4.20;3.90;;;;;;;27.91;47.48;101907.63;4148160;28;20037;-67
2022/06/26 07:19:32;;;;;;;3.78;3.45;;;;;;;27.88;47.61;101908.22;4148066;28;20041;-67
2022/06/26 07:21:33;;;;;;;4.35;4.00;;;;;;;27.93;47.87;101908.16;4148648;28;20077;-68
2022/06/26 07:23:35;;;;;;;3.65;3.35;;;;;;;27.91;47.53;101910.44;4148167;28;20038;-67
2022/06/26 07:25:39;;;;;;;3.97;3.65;;;;;;;27.90;47.58;101903.13;4148586;28;20100;-67
2022/06/26 07:27:41;;;;;;;3.75;3.45;;;;;;;27.93;47.92;101911.78;4147976;28;20444;-67
2022/06/26 07:29:42;;;;;;;3.75;3.40;;;;;;;27.91;47.62;101905.66;4148432;28;20033;-67
2022/06/26 07:31:43;;;;;;;4.13;3.75;;;;;;;27.93;47.62;101910.97;4147873;28;20362;-67
2022/06/26 07:36:10;;;;;;;4.32;3.63;;;;;;;27.92;47.79;101909.31;4149360;28;20096;-67
2022/06/26 07:38:14;;;;;;;4.10;3.70;;;;;;;27.87;47.59;101890.53;4147742;28;20046;-67
2022/06/26 07:40:16;;;;;;;4.75;4.05;;;;;;;27.92;47.48;101898.88;4147994;28;20092;-67
2022/06/26 07:42:17;;;;;;;3.97;3.67;;;;;;;27.68;47.89;101858.75;4147594;28;20042;-67
2022/06/26 07:44:19;;;;;;;4.13;3.33;;;;;;;27.89;48.03;101893.03;4145040;28;20096;-67
2022/06/26 07:46:20;;;;;;;3.53;3.22;;;;;;;27.91;47.90;101896.38;4147281;28;20413;-67
2022/06/26 07:48:31;;;;;;;3.55;3.25;;;;;;;27.91;47.85;101896.38;4147421;28;20104;-66
2022/06/26 07:50:35;;;;;;;3.95;3.60;;;;;;;27.92;47.84;101898.88;4147646;28;20084;-67
2022/06/26 07:52:37;;;;;;;4.60;4.20;;;;;;;27.91;47.75;101897.22;4148155;28;20123;-67
2022/06/26 07:54:38;;;;;;;4.05;3.75;;;;;;;27.91;47.60;101897.22;4147686;28;20050;-67
2022/06/26 07:56:39;;;;;;;3.88;3.58;;;;;;;27.92;47.90;101898.03;4147959;28;20045;-67
2022/06/26 07:58:41;;;;;;;4.43;4.03;;;;;;;27.92;48.05;101898.88;4147918;28;20026;-66
2022/06/26 08:00:46;;;;;;;4.18;3.85;;;;;;;27.93;47.71;101894.09;4147370;28;20104;-67
2022/06/26 08:02:47;;;;;;;4.47;3.15;;;;;;;27.94;47.79;101890.13;4147658;28;20440;-66
2022/06/26 08:04:48;;;;;;;3.88;3.35;;;;;;;27.95;47.58;101894.59;4148012;28;20038;-67
2022/06/26 08:06:50;;;;;;;4.55;4.15;;;;;;;27.93;48.02;101894.09;4147537;28;20535;-67
2022/06/26 08:08:51;;;;;;;3.97;3.58;;;;;;;27.88;48.24;101888.53;4147676;28;20071;-67
2022/06/26 08:10:53;;;;;;;3.72;3.42;;;;;;;27.91;47.92;101890.75;4147583;28;20080;-67
2022/06/26 08:12:55;;;;;;;4.45;4.03;;;;;;;27.85;48.06;101887.16;4147495;28;20092;-67
2022/06/26 08:14:56;;;;;;;3.80;3.50;;;;;;;27.91;47.71;101899.19;4147746;28;20045;-67
2022/06/26 08:16:58;;;;;;;4.05;3.75;;;;;;;27.90;47.96;101898.34;4147993;28;20034;-67
2022/06/26 08:19:02;;;;;;;5.90;3.88;;;;;;;27.89;47.93;101890.22;4147513;28;20548;-67
2022/06/26 08:23:26;;;;;;;3.92;3.63;;;;;;;27.91;47.99;101890.75;4148144;28;20543;-67
2022/06/26 08:25:30;;;;;;;4.25;3.85;;;;;;;27.91;48.02;101885.97;4147732;28;20038;-66
2022/06/26 08:27:31;;;;;;;4.00;3.50;;;;;;;27.92;48.17;101892.41;4147588;28;20041;-67
2022/06/26 08:29:33;;;;;;;3.38;3.08;;;;;;;27.92;47.86;101886.78;4147393;28;20046;-67
2022/06/26 08:31:34;;;;;;;3.47;3.20;;;;;;;27.91;47.88;101890.75;4149384;28;20081;-67
2022/06/26 08:33:36;;;;;;;3.72;3.42;;;;;;;27.91;48.05;101896.38;4151054;28;20042;-67
2022/06/26 08:35:37;;;;;;;4.20;3.90;;;;;;;27.91;48.05;101893.56;4150584;28;20426;-68
2022/06/26 08:37:39;;;;;;;4.22;3.92;;;;;;;27.89;48.11;101893.84;4149945;28;20041;-68
2022/06/26 08:39:40;;;;;;;3.63;3.28;;;;;;;27.89;48.00;101893.03;4150742;28;20489;-69
2022/06/26 08:41:47;;;;;;;4.32;3.92;;;;;;;27.89;48.13;101887.41;4150546;28;20433;-67
2022/06/26 08:43:50;;;;;;;4.30;3.90;;;;;;;27.85;48.08;101887.16;4149593;28;20034;-68
2022/06/26 08:45:55;;;;;;;3.92;3.63;;;;;;;27.91;47.91;101890.75;4150784;28;20084;-68
2022/06/26 08:47:57;;;;;;;;;;;;;;;27.88;47.89;101885.72;4150575;28;20034;-68
2022/06/26 08:49:59;;;;;;;3.53;3.22;;;;;;;27.93;47.71;101885.66;4150023;28;19971;-68
2022/06/26 08:52:01;;;;;;;3.72;3.42;;;;;;;27.93;47.72;101889.28;4150183;28;20037;-68
2022/06/26 08:54:05;;;;;;;4.03;3.47;;;;;;;27.93;47.75;101891.28;4144672;28;20112;-68
2022/06/26 08:56:10;;;;;;;3.80;3.50;;;;;;;27.92;48.16;101895.22;4149596;28;20096;-68
2022/06/26 08:58:11;;;;;;;3.42;3.03;;;;;;;27.89;48.16;101893.84;4149749;28;20276;-68
2022/06/26 09:00:14;;;;;;;4.20;3.28;;;;;;;27.88;48.03;101897.81;4150358;28;20481;-68
2022/06/26 09:02:15;;;;;;;4.07;3.22;;;;;;;27.88;48.14;101896.97;4150579;28;20026;-68
2022/06/26 09:04:16;;;;;;;4.00;3.65;;;;;;;27.89;47.90;101901.47;4150394;28;20042;-68
2022/06/26 09:06:18;;;;;;;3.80;3.50;;;;;;;27.88;48.07;101902.63;4150212;28;20100;-67
2022/06/26 09:08:20;;;;;;;4.15;3.38;;;;;;;27.87;48.17;101898.97;4149874;28;20045;-67
2022/06/26 09:10:22;;;;;;;3.70;3.40;;;;;;;27.89;48.08;101901.47;4150204;28;20069;-68
2022/06/26 09:12:35;;;;;;;3.40;3.10;;;;;;;27.84;47.81;101891.13;4149867;28;20037;-67
2022/06/26 09:14:37;;;;;;;4.07;3.78;;;;;;;27.89;47.92;101887.41;4149551;28;20252;-68
2022/06/26 09:16:45;;;;;;;4.20;3.80;;;;;;;27.89;48.06;101893.03;4149959;28;20120;-68
2022/06/26 09:18:46;;;;;;;3.78;3.47;;;;;;;27.86;47.97;101889.69;4149330;28;20548;-68
2022/06/26 09:20:54;;;;;;;5.45;3.97;;;;;;;27.83;47.95;101878.22;4150054;28;20042;-67
2022/06/26 09:23:00;;;;;;;4.18;3.75;;;;;;;27.89;47.93;101887.41;4149788;28;20034;-68
2022/06/26 09:25:03;;;;;;;4.00;3.65;;;;;;;27.88;48.10;101892.19;4149564;28;20104;-67
2022/06/26 09:27:15;;;;;;;3.50;3.30;;;;;;;27.88;47.91;101891.34;4149542;28;20104;-67
2022/06/26 09:29:20;;;;;;;3.75;3.45;;;;;;;27.89;47.67;101893.03;4149287;28;20042;-68
2022/06/26 09:31:22;;;;;;;3.60;3.40;;;;;;;27.88;48.08;101897.81;4149873;28;20187;-68
2022/06/26 09:33:29;;;;;;;3.63;3.35;;;;;;;27.86;47.82;101895.31;4149505;28;20038;-68
2022/06/26 09:35:34;;;;;;;4.07;3.58;;;;;;;27.88;48.11;101896.97;4149974;28;20034;-68
2022/06/26 09:37:37;;;;;;;3.63;3.28;;;;;;;27.89;48.07;101904.28;4149387;28;20421;-68
2022/06/26 09:39:39;;;;;;;3.72;3.42;;;;;;;27.88;47.75;101906.25;4149365;28;20047;-68
2022/06/26 09:41:43;;;;;;;3.78;3.47;;;;;;;27.88;48.08;101900.63;4149375;28;20073;-68